sensor_id;sensor_type;location;lat;lon;timestamp;P1;durP1;ratioP1;P2;durP2;ratioP2
75054;SDS011;63636;44.746;10.488;2023-04-25T00:01:56;1.10;;;0.90;;
75054;SDS011;63636;44.746;10.488;2023-04-25T00:04:21;2.83;;;0.90;;
75054;SDS011;63636;44.746;10.488;2023-04-25T00:06:47;1.15;;;1.00;;
75054;SDS011;63636;44.746;10.488;2023-04-25T00:09:13;3.35;;;1.00;;
75054;SDS011;63636;44.746;10.488;2023-04-25T00:11:39;3.38;;;0.85;;
75054;SDS011;63636;44.746;10.488;2023-04-25T00:14:05;1.40;;;0.90;;
75054;SDS011;63636;44.746;10.488;2023-04-25T00:16:31;1.67;;;1.00;;
75054;SDS011;63636;44.746;10.488;2023-04-25T00:18:59;1.98;;;0.90;;
75054;SDS011;63636;44.746;10.488;2023-04-25T00:21:24;4.63;;;1.30;;
75054;SDS011;63636;44.746;10.488;2023-04-25T00:23:52;2.25;;;1.10;;
75054;SDS011;63636;44.746;10.488;2023-04-25T00:26:18;3.53;;;1.08;;
75054;SDS011;63636;44.746;10.488;2023-04-25T00:28:43;2.03;;;1.05;;
75054;SDS011;63636;44.746;10.488;2023-04-25T00:31:09;2.10;;;1.00;;
75054;SDS011;63636;44.746;10.488;2023-04-25T00:33:35;2.75;;;1.20;;
75054;SDS011;63636;44.746;10.488;2023-04-25T00:36:01;2.65;;;1.20;;
75054;SDS011;63636;44.746;10.488;2023-04-25T00:38:27;2.22;;;1.13;;
75054;SDS011;63636;44.746;10.488;2023-04-25T00:40:52;2.30;;;1.20;;
75054;SDS011;63636;44.746;10.488;2023-04-25T00:43:18;1.75;;;1.20;;
75054;SDS011;63636;44.746;10.488;2023-04-25T00:45:43;2.33;;;1.10;;
75054;SDS011;63636;44.746;10.488;2023-04-25T00:48:12;2.47;;;1.40;;
75054;SDS011;63636;44.746;10.488;2023-04-25T00:50:39;1.80;;;1.17;;
75054;SDS011;63636;44.746;10.488;2023-04-25T00:53:04;3.38;;;1.17;;
75054;SDS011;63636;44.746;10.488;2023-04-25T00:55:30;2.55;;;1.20;;
75054;SDS011;63636;44.746;10.488;2023-04-25T00:57:57;1.83;;;1.23;;
75054;SDS011;63636;44.746;10.488;2023-04-25T01:00:22;1.98;;;1.27;;
75054;SDS011;63636;44.746;10.488;2023-04-25T01:02:48;1.60;;;1.10;;
75054;SDS011;63636;44.746;10.488;2023-04-25T01:05:13;2.00;;;1.00;;
75054;SDS011;63636;44.746;10.488;2023-04-25T01:07:39;2.08;;;1.25;;
75054;SDS011;63636;44.746;10.488;2023-04-25T01:10:05;3.03;;;1.30;;
75054;SDS011;63636;44.746;10.488;2023-04-25T01:12:31;2.00;;;1.15;;
75054;SDS011;63636;44.746;10.488;2023-04-25T01:14:57;3.65;;;1.30;;
75054;SDS011;63636;44.746;10.488;2023-04-25T01:17:22;2.60;;;1.40;;
75054;SDS011;63636;44.746;10.488;2023-04-25T01:19:48;4.35;;;1.52;;
75054;SDS011;63636;44.746;10.488;2023-04-25T01:22:14;2.63;;;1.50;;
75054;SDS011;63636;44.746;10.488;2023-04-25T01:24:40;2.80;;;1.40;;
75054;SDS011;63636;44.746;10.488;2023-04-25T01:27:05;2.00;;;1.13;;
75054;SDS011;63636;44.746;10.488;2023-04-25T01:29:32;2.20;;;1.45;;
75054;SDS011;63636;44.746;10.488;2023-04-25T01:31:57;4.25;;;1.58;;
75054;SDS011;63636;44.746;10.488;2023-04-25T01:34:24;2.72;;;1.40;;
75054;SDS011;63636;44.746;10.488;2023-04-25T01:36:50;3.15;;;1.40;;
75054;SDS011;63636;44.746;10.488;2023-04-25T01:39:16;3.03;;;1.67;;
75054;SDS011;63636;44.746;10.488;2023-04-25T01:41:43;2.22;;;1.50;;
75054;SDS011;63636;44.746;10.488;2023-04-25T01:44:09;2.85;;;1.40;;
75054;SDS011;63636;44.746;10.488;2023-04-25T01:46:36;3.00;;;1.50;;
75054;SDS011;63636;44.746;10.488;2023-04-25T01:49:02;2.95;;;1.50;;
75054;SDS011;63636;44.746;10.488;2023-04-25T01:51:28;2.10;;;1.23;;
75054;SDS011;63636;44.746;10.488;2023-04-25T01:53:53;2.03;;;1.25;;
75054;SDS011;63636;44.746;10.488;2023-04-25T01:56:20;2.58;;;1.30;;
75054;SDS011;63636;44.746;10.488;2023-04-25T01:58:47;2.42;;;1.20;;
75054;SDS011;63636;44.746;10.488;2023-04-25T02:01:42;1.35;;;0.98;;
75054;SDS011;63636;44.746;10.488;2023-04-25T02:04:19;2.75;;;1.45;;
75054;SDS011;63636;44.746;10.488;2023-04-25T02:06:45;3.20;;;1.38;;
75054;SDS011;63636;44.746;10.488;2023-04-25T02:09:14;4.05;;;1.50;;
75054;SDS011;63636;44.746;10.488;2023-04-25T02:11:44;2.10;;;1.40;;
75054;SDS011;63636;44.746;10.488;2023-04-25T02:14:33;2.97;;;1.55;;
75054;SDS011;63636;44.746;10.488;2023-04-25T02:17:05;2.78;;;1.50;;
75054;SDS011;63636;44.746;10.488;2023-04-25T02:19:31;3.45;;;1.58;;
75054;SDS011;63636;44.746;10.488;2023-04-25T02:21:56;5.25;;;1.48;;
75054;SDS011;63636;44.746;10.488;2023-04-25T02:24:23;2.70;;;1.40;;
75054;SDS011;63636;44.746;10.488;2023-04-25T02:26:48;2.92;;;1.58;;
75054;SDS011;63636;44.746;10.488;2023-04-25T02:29:15;2.13;;;1.63;;
75054;SDS011;63636;44.746;10.488;2023-04-25T02:31:41;2.42;;;1.70;;
75054;SDS011;63636;44.746;10.488;2023-04-25T02:34:07;3.60;;;1.60;;
75054;SDS011;63636;44.746;10.488;2023-04-25T02:36:35;2.50;;;1.40;;
75054;SDS011;63636;44.746;10.488;2023-04-25T02:39:01;3.92;;;1.58;;
75054;SDS011;63636;44.746;10.488;2023-04-25T02:41:26;2.00;;;1.40;;
75054;SDS011;63636;44.746;10.488;2023-04-25T02:43:54;1.77;;;1.30;;
75054;SDS011;63636;44.746;10.488;2023-04-25T02:46:20;3.45;;;1.58;;
75054;SDS011;63636;44.746;10.488;2023-04-25T02:48:45;2.33;;;1.45;;
75054;SDS011;63636;44.746;10.488;2023-04-25T02:51:11;2.22;;;1.50;;
75054;SDS011;63636;44.746;10.488;2023-04-25T02:53:37;2.88;;;1.70;;
75054;SDS011;63636;44.746;10.488;2023-04-25T02:56:03;3.30;;;1.70;;
75054;SDS011;63636;44.746;10.488;2023-04-25T02:58:28;4.05;;;1.63;;
75054;SDS011;63636;44.746;10.488;2023-04-25T03:00:54;4.05;;;1.70;;
75054;SDS011;63636;44.746;10.488;2023-04-25T03:03:20;2.50;;;1.60;;
75054;SDS011;63636;44.746;10.488;2023-04-25T03:05:49;2.00;;;1.50;;
75054;SDS011;63636;44.746;10.488;2023-04-25T03:08:19;3.50;;;1.70;;
75054;SDS011;63636;44.746;10.488;2023-04-25T03:10:45;2.97;;;1.60;;
75054;SDS011;63636;44.746;10.488;2023-04-25T03:13:13;3.10;;;1.70;;
75054;SDS011;63636;44.746;10.488;2023-04-25T03:15:41;2.13;;;1.50;;
75054;SDS011;63636;44.746;10.488;2023-04-25T03:18:06;3.33;;;1.67;;
75054;SDS011;63636;44.746;10.488;2023-04-25T03:20:32;2.00;;;1.50;;
75054;SDS011;63636;44.746;10.488;2023-04-25T03:22:57;2.00;;;1.50;;
75054;SDS011;63636;44.746;10.488;2023-04-25T03:25:23;2.40;;;1.50;;
75054;SDS011;63636;44.746;10.488;2023-04-25T03:27:48;2.78;;;1.50;;
75054;SDS011;63636;44.746;10.488;2023-04-25T03:30:14;2.50;;;1.50;;
75054;SDS011;63636;44.746;10.488;2023-04-25T03:32:42;2.10;;;1.50;;
75054;SDS011;63636;44.746;10.488;2023-04-25T03:35:07;4.22;;;2.15;;
75054;SDS011;63636;44.746;10.488;2023-04-25T03:37:33;2.80;;;1.70;;
75054;SDS011;63636;44.746;10.488;2023-04-25T03:39:59;3.40;;;1.80;;
75054;SDS011;63636;44.746;10.488;2023-04-25T03:42:34;3.67;;;1.88;;
75054;SDS011;63636;44.746;10.488;2023-04-25T03:45:00;4.53;;;2.00;;
75054;SDS011;63636;44.746;10.488;2023-04-25T03:47:26;4.63;;;1.85;;
75054;SDS011;63636;44.746;10.488;2023-04-25T03:49:52;3.78;;;1.90;;
75054;SDS011;63636;44.746;10.488;2023-04-25T03:52:20;4.65;;;2.20;;
75054;SDS011;63636;44.746;10.488;2023-04-25T03:54:47;4.57;;;2.00;;
75054;SDS011;63636;44.746;10.488;2023-04-25T03:57:16;5.20;;;2.25;;
75054;SDS011;63636;44.746;10.488;2023-04-25T03:59:42;4.32;;;2.22;;
75054;SDS011;63636;44.746;10.488;2023-04-25T04:02:10;4.80;;;2.60;;
75054;SDS011;63636;44.746;10.488;2023-04-25T04:04:36;4.10;;;2.40;;
75054;SDS011;63636;44.746;10.488;2023-04-25T04:07:02;4.35;;;2.40;;
75054;SDS011;63636;44.746;10.488;2023-04-25T04:09:32;4.97;;;2.30;;
75054;SDS011;63636;44.746;10.488;2023-04-25T04:12:01;5.32;;;2.40;;
75054;SDS011;63636;44.746;10.488;2023-04-25T04:14:29;5.68;;;2.60;;
75054;SDS011;63636;44.746;10.488;2023-04-25T04:16:55;4.90;;;2.47;;
75054;SDS011;63636;44.746;10.488;2023-04-25T04:19:21;4.18;;;2.15;;
75054;SDS011;63636;44.746;10.488;2023-04-25T04:21:55;4.07;;;2.10;;
75054;SDS011;63636;44.746;10.488;2023-04-25T04:24:20;5.70;;;2.30;;
75054;SDS011;63636;44.746;10.488;2023-04-25T04:26:55;4.35;;;2.30;;
75054;SDS011;63636;44.746;10.488;2023-04-25T04:29:32;4.75;;;2.30;;
75054;SDS011;63636;44.746;10.488;2023-04-25T04:32:07;4.05;;;2.40;;
75054;SDS011;63636;44.746;10.488;2023-04-25T04:34:34;4.55;;;2.20;;
75054;SDS011;63636;44.746;10.488;2023-04-25T04:37:01;4.97;;;2.28;;
75054;SDS011;63636;44.746;10.488;2023-04-25T04:39:26;3.55;;;2.10;;
75054;SDS011;63636;44.746;10.488;2023-04-25T04:42:14;6.03;;;2.40;;
75054;SDS011;63636;44.746;10.488;2023-04-25T04:45:01;5.95;;;2.20;;
75054;SDS011;63636;44.746;10.488;2023-04-25T04:47:44;5.15;;;2.53;;
75054;SDS011;63636;44.746;10.488;2023-04-25T04:50:30;3.45;;;1.98;;
75054;SDS011;63636;44.746;10.488;2023-04-25T04:53:30;4.72;;;2.20;;
75054;SDS011;63636;44.746;10.488;2023-04-25T04:56:22;3.90;;;2.10;;
75054;SDS011;63636;44.746;10.488;2023-04-25T04:59:08;5.65;;;2.40;;
75054;SDS011;63636;44.746;10.488;2023-04-25T05:01:54;4.10;;;2.40;;
75054;SDS011;63636;44.746;10.488;2023-04-25T05:04:46;7.05;;;2.60;;
75054;SDS011;63636;44.746;10.488;2023-04-25T05:07:34;4.07;;;2.28;;
75054;SDS011;63636;44.746;10.488;2023-04-25T05:10:00;5.47;;;2.40;;
75054;SDS011;63636;44.746;10.488;2023-04-25T05:12:43;4.13;;;2.60;;
75054;SDS011;63636;44.746;10.488;2023-04-25T05:15:11;5.30;;;2.60;;
75054;SDS011;63636;44.746;10.488;2023-04-25T05:17:51;7.07;;;3.20;;
75054;SDS011;63636;44.746;10.488;2023-04-25T05:20:34;6.72;;;3.55;;
75054;SDS011;63636;44.746;10.488;2023-04-25T05:23:27;7.60;;;3.40;;
75054;SDS011;63636;44.746;10.488;2023-04-25T05:25:53;7.38;;;4.05;;
75054;SDS011;63636;44.746;10.488;2023-04-25T05:28:41;8.48;;;4.20;;
75054;SDS011;63636;44.746;10.488;2023-04-25T05:31:13;7.80;;;3.72;;
75054;SDS011;63636;44.746;10.488;2023-04-25T05:34:01;7.18;;;3.40;;
75054;SDS011;63636;44.746;10.488;2023-04-25T05:36:39;6.00;;;2.90;;
75054;SDS011;63636;44.746;10.488;2023-04-25T05:39:04;5.65;;;2.85;;
75054;SDS011;63636;44.746;10.488;2023-04-25T05:41:54;5.57;;;2.80;;
75054;SDS011;63636;44.746;10.488;2023-04-25T05:44:44;6.00;;;2.75;;
75054;SDS011;63636;44.746;10.488;2023-04-25T05:47:25;4.45;;;2.60;;
75054;SDS011;63636;44.746;10.488;2023-04-25T05:50:00;5.70;;;2.70;;
75054;SDS011;63636;44.746;10.488;2023-04-25T05:52:46;4.72;;;2.53;;
75054;SDS011;63636;44.746;10.488;2023-04-25T05:55:32;5.57;;;2.53;;
75054;SDS011;63636;44.746;10.488;2023-04-25T05:58:00;4.45;;;2.47;;
75054;SDS011;63636;44.746;10.488;2023-04-25T06:00:26;5.28;;;2.63;;
75054;SDS011;63636;44.746;10.488;2023-04-25T06:02:51;6.28;;;2.50;;
75054;SDS011;63636;44.746;10.488;2023-04-25T06:05:17;4.43;;;2.42;;
75054;SDS011;63636;44.746;10.488;2023-04-25T06:07:45;5.63;;;2.70;;
75054;SDS011;63636;44.746;10.488;2023-04-25T06:10:10;6.07;;;2.53;;
75054;SDS011;63636;44.746;10.488;2023-04-25T06:12:37;6.03;;;2.63;;
75054;SDS011;63636;44.746;10.488;2023-04-25T06:15:04;5.57;;;2.67;;
75054;SDS011;63636;44.746;10.488;2023-04-25T06:17:30;4.60;;;2.80;;
75054;SDS011;63636;44.746;10.488;2023-04-25T06:19:57;4.82;;;2.60;;
75054;SDS011;63636;44.746;10.488;2023-04-25T06:22:22;4.63;;;2.33;;
75054;SDS011;63636;44.746;10.488;2023-04-25T06:24:48;4.43;;;2.53;;
75054;SDS011;63636;44.746;10.488;2023-04-25T06:27:13;6.40;;;2.80;;
75054;SDS011;63636;44.746;10.488;2023-04-25T06:29:39;5.28;;;2.60;;
75054;SDS011;63636;44.746;10.488;2023-04-25T06:32:05;4.43;;;2.60;;
75054;SDS011;63636;44.746;10.488;2023-04-25T06:34:31;5.15;;;2.65;;
75054;SDS011;63636;44.746;10.488;2023-04-25T06:36:57;5.55;;;2.45;;
75054;SDS011;63636;44.746;10.488;2023-04-25T06:39:22;5.22;;;2.58;;
75054;SDS011;63636;44.746;10.488;2023-04-25T06:41:50;4.90;;;2.70;;
75054;SDS011;63636;44.746;10.488;2023-04-25T06:44:38;6.55;;;2.80;;
75054;SDS011;63636;44.746;10.488;2023-04-25T06:47:06;4.57;;;2.50;;
75054;SDS011;63636;44.746;10.488;2023-04-25T06:49:32;5.50;;;2.83;;
75054;SDS011;63636;44.746;10.488;2023-04-25T06:51:58;5.32;;;2.53;;
75054;SDS011;63636;44.746;10.488;2023-04-25T06:54:24;6.65;;;2.65;;
75054;SDS011;63636;44.746;10.488;2023-04-25T06:57:00;5.25;;;2.40;;
75054;SDS011;63636;44.746;10.488;2023-04-25T06:59:27;5.13;;;2.67;;
75054;SDS011;63636;44.746;10.488;2023-04-25T07:01:52;5.20;;;2.67;;
75054;SDS011;63636;44.746;10.488;2023-04-25T07:04:23;6.05;;;2.70;;
75054;SDS011;63636;44.746;10.488;2023-04-25T07:06:52;6.15;;;2.60;;
75054;SDS011;63636;44.746;10.488;2023-04-25T07:09:23;5.10;;;2.50;;
75054;SDS011;63636;44.746;10.488;2023-04-25T07:11:49;9.65;;;2.90;;
75054;SDS011;63636;44.746;10.488;2023-04-25T07:14:15;6.95;;;2.70;;
75054;SDS011;63636;44.746;10.488;2023-04-25T07:16:40;6.82;;;2.83;;
75054;SDS011;63636;44.746;10.488;2023-04-25T07:19:07;5.60;;;2.97;;
75054;SDS011;63636;44.746;10.488;2023-04-25T07:21:33;5.85;;;3.13;;
75054;SDS011;63636;44.746;10.488;2023-04-25T07:24:01;5.10;;;3.00;;
75054;SDS011;63636;44.746;10.488;2023-04-25T07:26:32;6.72;;;3.00;;
75054;SDS011;63636;44.746;10.488;2023-04-25T07:29:17;4.75;;;2.80;;
75054;SDS011;63636;44.746;10.488;2023-04-25T07:31:42;5.43;;;2.95;;
75054;SDS011;63636;44.746;10.488;2023-04-25T07:34:08;14.73;;;3.10;;
75054;SDS011;63636;44.746;10.488;2023-04-25T07:36:34;6.55;;;3.25;;
75054;SDS011;63636;44.746;10.488;2023-04-25T07:39:00;5.65;;;3.15;;
75054;SDS011;63636;44.746;10.488;2023-04-25T07:41:25;6.10;;;3.03;;
75054;SDS011;63636;44.746;10.488;2023-04-25T07:43:51;6.47;;;3.17;;
75054;SDS011;63636;44.746;10.488;2023-04-25T07:46:20;5.30;;;3.15;;
75054;SDS011;63636;44.746;10.488;2023-04-25T07:48:45;6.32;;;3.13;;
75054;SDS011;63636;44.746;10.488;2023-04-25T07:51:11;5.97;;;3.03;;
75054;SDS011;63636;44.746;10.488;2023-04-25T07:53:37;5.20;;;2.50;;
75054;SDS011;63636;44.746;10.488;2023-04-25T07:56:07;4.15;;;2.33;;
75054;SDS011;63636;44.746;10.488;2023-04-25T07:58:36;3.70;;;1.75;;
75054;SDS011;63636;44.746;10.488;2023-04-25T08:01:04;1.20;;;1.10;;
75054;SDS011;63636;44.746;10.488;2023-04-25T08:03:45;1.73;;;0.80;;
75054;SDS011;63636;44.746;10.488;2023-04-25T08:06:17;1.13;;;0.55;;
75054;SDS011;63636;44.746;10.488;2023-04-25T08:09:03;0.60;;;0.60;;
75054;SDS011;63636;44.746;10.488;2023-04-25T08:11:35;1.08;;;0.50;;
75054;SDS011;63636;44.746;10.488;2023-04-25T08:14:01;2.75;;;0.68;;
75054;SDS011;63636;44.746;10.488;2023-04-25T08:16:27;1.33;;;0.60;;
75054;SDS011;63636;44.746;10.488;2023-04-25T08:18:53;0.65;;;0.52;;
75054;SDS011;63636;44.746;10.488;2023-04-25T08:21:19;1.05;;;0.70;;
75054;SDS011;63636;44.746;10.488;2023-04-25T08:23:45;1.00;;;0.52;;
75054;SDS011;63636;44.746;10.488;2023-04-25T08:26:14;0.40;;;0.40;;
75054;SDS011;63636;44.746;10.488;2023-04-25T08:28:41;0.70;;;0.40;;
75054;SDS011;63636;44.746;10.488;2023-04-25T08:31:07;0.75;;;0.47;;
75054;SDS011;63636;44.746;10.488;2023-04-25T08:33:42;0.55;;;0.50;;
75054;SDS011;63636;44.746;10.488;2023-04-25T08:36:19;0.70;;;0.47;;
75054;SDS011;63636;44.746;10.488;2023-04-25T08:38:45;1.23;;;0.35;;
75054;SDS011;63636;44.746;10.488;2023-04-25T08:41:12;1.38;;;0.50;;
75054;SDS011;63636;44.746;10.488;2023-04-25T08:43:38;1.63;;;0.50;;
75054;SDS011;63636;44.746;10.488;2023-04-25T08:46:07;1.98;;;0.30;;
75054;SDS011;63636;44.746;10.488;2023-04-25T08:48:44;0.50;;;0.30;;
75054;SDS011;63636;44.746;10.488;2023-04-25T08:51:10;1.30;;;0.30;;
75054;SDS011;63636;44.746;10.488;2023-04-25T08:53:40;0.50;;;0.30;;
75054;SDS011;63636;44.746;10.488;2023-04-25T08:56:08;1.58;;;0.50;;
75054;SDS011;63636;44.746;10.488;2023-04-25T08:58:35;1.60;;;0.60;;
75054;SDS011;63636;44.746;10.488;2023-04-25T09:01:01;1.73;;;0.40;;
75054;SDS011;63636;44.746;10.488;2023-04-25T09:03:31;0.52;;;0.30;;
75054;SDS011;63636;44.746;10.488;2023-04-25T09:05:56;1.13;;;0.30;;
75054;SDS011;63636;44.746;10.488;2023-04-25T09:08:23;0.60;;;0.38;;
75054;SDS011;63636;44.746;10.488;2023-04-25T09:10:48;0.50;;;0.45;;
75054;SDS011;63636;44.746;10.488;2023-04-25T09:13:14;1.38;;;0.30;;
75054;SDS011;63636;44.746;10.488;2023-04-25T09:15:58;1.05;;;0.30;;
75054;SDS011;63636;44.746;10.488;2023-04-25T09:18:44;1.67;;;0.20;;
75054;SDS011;63636;44.746;10.488;2023-04-25T09:21:12;1.25;;;0.20;;
75054;SDS011;63636;44.746;10.488;2023-04-25T09:23:44;0.75;;;0.25;;
75054;SDS011;63636;44.746;10.488;2023-04-25T09:28:36;0.30;;;0.30;;
75054;SDS011;63636;44.746;10.488;2023-04-25T09:31:03;0.20;;;0.20;;
75054;SDS011;63636;44.746;10.488;2023-04-25T09:33:34;1.55;;;0.47;;
75054;SDS011;63636;44.746;10.488;2023-04-25T09:36:02;0.73;;;0.40;;
75054;SDS011;63636;44.746;10.488;2023-04-25T09:38:46;0.77;;;0.40;;
75054;SDS011;63636;44.746;10.488;2023-04-25T09:41:24;0.60;;;0.35;;
75054;SDS011;63636;44.746;10.488;2023-04-25T09:43:50;0.82;;;0.40;;
75054;SDS011;63636;44.746;10.488;2023-04-25T09:46:16;3.15;;;0.50;;
75054;SDS011;63636;44.746;10.488;2023-04-25T09:48:49;1.98;;;0.40;;
75054;SDS011;63636;44.746;10.488;2023-04-25T09:51:17;1.63;;;0.47;;
75054;SDS011;63636;44.746;10.488;2023-04-25T09:53:46;1.20;;;0.52;;
75054;SDS011;63636;44.746;10.488;2023-04-25T09:56:51;0.85;;;0.43;;
75054;SDS011;63636;44.746;10.488;2023-04-25T09:59:18;0.50;;;0.50;;
75054;SDS011;63636;44.746;10.488;2023-04-25T10:01:45;0.63;;;0.50;;
75054;SDS011;63636;44.746;10.488;2023-04-25T10:04:23;0.82;;;0.70;;
75054;SDS011;63636;44.746;10.488;2023-04-25T10:06:59;0.93;;;0.63;;
75054;SDS011;63636;44.746;10.488;2023-04-25T10:09:25;1.75;;;0.63;;
75054;SDS011;63636;44.746;10.488;2023-04-25T10:11:51;1.10;;;0.80;;
75054;SDS011;63636;44.746;10.488;2023-04-25T10:14:17;1.48;;;0.80;;
75054;SDS011;63636;44.746;10.488;2023-04-25T10:16:43;1.48;;;0.90;;
75054;SDS011;63636;44.746;10.488;2023-04-25T10:19:09;2.00;;;0.90;;
75054;SDS011;63636;44.746;10.488;2023-04-25T10:21:37;1.00;;;0.90;;
75054;SDS011;63636;44.746;10.488;2023-04-25T10:24:05;2.67;;;1.10;;
75054;SDS011;63636;44.746;10.488;2023-04-25T10:26:31;0.70;;;0.70;;
75054;SDS011;63636;44.746;10.488;2023-04-25T10:28:58;1.75;;;0.90;;
75054;SDS011;63636;44.746;10.488;2023-04-25T10:31:24;2.80;;;1.00;;
75054;SDS011;63636;44.746;10.488;2023-04-25T10:33:50;1.38;;;1.00;;
75054;SDS011;63636;44.746;10.488;2023-04-25T10:36:19;1.75;;;1.20;;
75054;SDS011;63636;44.746;10.488;2023-04-25T10:38:47;1.40;;;0.90;;
75054;SDS011;63636;44.746;10.488;2023-04-25T10:41:12;1.13;;;1.02;;
75054;SDS011;63636;44.746;10.488;2023-04-25T10:43:42;1.70;;;1.20;;
75054;SDS011;63636;44.746;10.488;2023-04-25T10:46:18;1.75;;;1.00;;
75054;SDS011;63636;44.746;10.488;2023-04-25T10:48:48;4.82;;;1.10;;
75054;SDS011;63636;44.746;10.488;2023-04-25T10:51:18;2.20;;;1.20;;
75054;SDS011;63636;44.746;10.488;2023-04-25T10:53:44;1.17;;;1.08;;
75054;SDS011;63636;44.746;10.488;2023-04-25T10:56:19;2.30;;;1.00;;
75054;SDS011;63636;44.746;10.488;2023-04-25T10:58:48;1.30;;;1.00;;
75054;SDS011;63636;44.746;10.488;2023-04-25T11:01:15;2.20;;;1.10;;
75054;SDS011;63636;44.746;10.488;2023-04-25T11:03:44;2.38;;;1.00;;
75054;SDS011;63636;44.746;10.488;2023-04-25T11:06:23;1.70;;;1.00;;
75054;SDS011;63636;44.746;10.488;2023-04-25T11:08:54;2.42;;;1.20;;
75054;SDS011;63636;44.746;10.488;2023-04-25T11:11:19;3.30;;;1.27;;
75054;SDS011;63636;44.746;10.488;2023-04-25T11:13:51;1.73;;;1.17;;
75054;SDS011;63636;44.746;10.488;2023-04-25T11:16:16;1.60;;;1.13;;
75054;SDS011;63636;44.746;10.488;2023-04-25T11:18:42;1.63;;;1.10;;
75054;SDS011;63636;44.746;10.488;2023-04-25T11:21:08;2.15;;;1.05;;
75054;SDS011;63636;44.746;10.488;2023-04-25T11:23:33;2.53;;;1.20;;
75054;SDS011;63636;44.746;10.488;2023-04-25T11:25:59;3.72;;;1.13;;
75054;SDS011;63636;44.746;10.488;2023-04-25T11:28:26;1.50;;;0.90;;
75054;SDS011;63636;44.746;10.488;2023-04-25T11:30:52;2.22;;;1.02;;
75054;SDS011;63636;44.746;10.488;2023-04-25T11:33:17;1.85;;;0.90;;
75054;SDS011;63636;44.746;10.488;2023-04-25T11:35:43;2.08;;;0.77;;
75054;SDS011;63636;44.746;10.488;2023-04-25T11:38:09;2.10;;;0.88;;
75054;SDS011;63636;44.746;10.488;2023-04-25T11:40:37;1.52;;;0.95;;
75054;SDS011;63636;44.746;10.488;2023-04-25T11:43:03;1.27;;;1.00;;
75054;SDS011;63636;44.746;10.488;2023-04-25T11:45:29;3.05;;;0.90;;
75054;SDS011;63636;44.746;10.488;2023-04-25T11:47:56;1.52;;;1.08;;
75054;SDS011;63636;44.746;10.488;2023-04-25T11:50:21;1.65;;;0.90;;
75054;SDS011;63636;44.746;10.488;2023-04-25T11:52:47;2.50;;;1.05;;
75054;SDS011;63636;44.746;10.488;2023-04-25T11:55:17;1.15;;;0.82;;
75054;SDS011;63636;44.746;10.488;2023-04-25T11:57:43;1.60;;;0.90;;
75054;SDS011;63636;44.746;10.488;2023-04-25T12:00:09;4.32;;;1.00;;
75054;SDS011;63636;44.746;10.488;2023-04-25T12:02:42;1.65;;;0.90;;
75054;SDS011;63636;44.746;10.488;2023-04-25T12:05:08;1.65;;;0.90;;
75054;SDS011;63636;44.746;10.488;2023-04-25T12:07:34;3.60;;;1.10;;
75054;SDS011;63636;44.746;10.488;2023-04-25T12:10:03;1.05;;;0.73;;
75054;SDS011;63636;44.746;10.488;2023-04-25T12:12:32;1.50;;;1.00;;
75054;SDS011;63636;44.746;10.488;2023-04-25T12:15:07;2.40;;;1.08;;
75054;SDS011;63636;44.746;10.488;2023-04-25T12:17:33;3.13;;;1.10;;
75054;SDS011;63636;44.746;10.488;2023-04-25T12:19:59;3.65;;;1.25;;
75054;SDS011;63636;44.746;10.488;2023-04-25T12:22:25;1.70;;;1.20;;
75054;SDS011;63636;44.746;10.488;2023-04-25T12:24:50;2.20;;;1.00;;
75054;SDS011;63636;44.746;10.488;2023-04-25T12:27:18;2.33;;;1.20;;
75054;SDS011;63636;44.746;10.488;2023-04-25T12:29:52;1.70;;;1.10;;
75054;SDS011;63636;44.746;10.488;2023-04-25T12:34:43;1.88;;;0.90;;
75054;SDS011;63636;44.746;10.488;2023-04-25T12:37:08;1.50;;;1.00;;
75054;SDS011;63636;44.746;10.488;2023-04-25T12:39:34;2.70;;;1.38;;
75054;SDS011;63636;44.746;10.488;2023-04-25T12:41:59;1.42;;;0.90;;
75054;SDS011;63636;44.746;10.488;2023-04-25T12:44:26;2.00;;;1.10;;
75054;SDS011;63636;44.746;10.488;2023-04-25T12:46:51;2.00;;;1.30;;
75054;SDS011;63636;44.746;10.488;2023-04-25T12:49:17;2.95;;;1.20;;
75054;SDS011;63636;44.746;10.488;2023-04-25T12:51:43;1.92;;;1.25;;
75054;SDS011;63636;44.746;10.488;2023-04-25T12:54:08;2.88;;;1.30;;
75054;SDS011;63636;44.746;10.488;2023-04-25T12:56:34;4.35;;;1.10;;
75054;SDS011;63636;44.746;10.488;2023-04-25T12:59:00;1.50;;;1.13;;
75054;SDS011;63636;44.746;10.488;2023-04-25T13:01:28;1.63;;;1.10;;
75054;SDS011;63636;44.746;10.488;2023-04-25T13:03:53;1.80;;;1.20;;
75054;SDS011;63636;44.746;10.488;2023-04-25T13:06:19;2.65;;;1.30;;
75054;SDS011;63636;44.746;10.488;2023-04-25T13:08:45;2.85;;;1.20;;
75054;SDS011;63636;44.746;10.488;2023-04-25T13:11:11;5.40;;;1.17;;
75054;SDS011;63636;44.746;10.488;2023-04-25T13:13:37;3.50;;;1.30;;
75054;SDS011;63636;44.746;10.488;2023-04-25T13:16:03;2.28;;;1.10;;
75054;SDS011;63636;44.746;10.488;2023-04-25T13:18:29;1.67;;;0.80;;
75054;SDS011;63636;44.746;10.488;2023-04-25T13:20:55;2.15;;;0.98;;
75054;SDS011;63636;44.746;10.488;2023-04-25T13:23:20;1.65;;;0.70;;
75054;SDS011;63636;44.746;10.488;2023-04-25T13:25:46;1.15;;;0.80;;
75054;SDS011;63636;44.746;10.488;2023-04-25T13:28:12;0.88;;;0.73;;
75054;SDS011;63636;44.746;10.488;2023-04-25T13:30:37;3.72;;;0.80;;
75054;SDS011;63636;44.746;10.488;2023-04-25T13:33:03;1.30;;;0.80;;
75054;SDS011;63636;44.746;10.488;2023-04-25T13:35:29;2.10;;;0.90;;
75054;SDS011;63636;44.746;10.488;2023-04-25T13:37:55;2.75;;;0.85;;
75054;SDS011;63636;44.746;10.488;2023-04-25T13:40:21;1.13;;;0.70;;
75054;SDS011;63636;44.746;10.488;2023-04-25T13:42:46;2.58;;;0.80;;
75054;SDS011;63636;44.746;10.488;2023-04-25T13:45:12;2.15;;;0.80;;
75054;SDS011;63636;44.746;10.488;2023-04-25T13:47:37;1.48;;;0.90;;
75054;SDS011;63636;44.746;10.488;2023-04-25T13:50:03;3.22;;;1.05;;
75054;SDS011;63636;44.746;10.488;2023-04-25T13:52:30;1.67;;;0.90;;
75054;SDS011;63636;44.746;10.488;2023-04-25T13:54:57;1.00;;;0.80;;
75054;SDS011;63636;44.746;10.488;2023-04-25T13:57:22;2.40;;;0.90;;
75054;SDS011;63636;44.746;10.488;2023-04-25T13:59:48;3.40;;;0.95;;
75054;SDS011;63636;44.746;10.488;2023-04-25T14:02:13;1.67;;;0.70;;
75054;SDS011;63636;44.746;10.488;2023-04-25T14:04:40;1.67;;;0.70;;
75054;SDS011;63636;44.746;10.488;2023-04-25T14:07:05;1.08;;;0.60;;
75054;SDS011;63636;44.746;10.488;2023-04-25T14:09:31;1.08;;;0.70;;
75054;SDS011;63636;44.746;10.488;2023-04-25T14:11:56;1.23;;;0.80;;
75054;SDS011;63636;44.746;10.488;2023-04-25T14:14:23;1.20;;;0.70;;
75054;SDS011;63636;44.746;10.488;2023-04-25T14:16:49;1.52;;;0.88;;
75054;SDS011;63636;44.746;10.488;2023-04-25T14:19:18;2.05;;;0.85;;
75054;SDS011;63636;44.746;10.488;2023-04-25T14:21:43;2.00;;;0.80;;
75054;SDS011;63636;44.746;10.488;2023-04-25T14:24:09;1.77;;;0.93;;
75054;SDS011;63636;44.746;10.488;2023-04-25T14:26:38;2.42;;;0.90;;
75054;SDS011;63636;44.746;10.488;2023-04-25T14:29:06;0.75;;;0.60;;
75054;SDS011;63636;44.746;10.488;2023-04-25T14:31:33;1.45;;;0.63;;
75054;SDS011;63636;44.746;10.488;2023-04-25T14:33:58;2.20;;;0.82;;
75054;SDS011;63636;44.746;10.488;2023-04-25T14:36:24;1.40;;;0.80;;
75054;SDS011;63636;44.746;10.488;2023-04-25T14:38:51;1.38;;;0.90;;
75054;SDS011;63636;44.746;10.488;2023-04-25T14:41:17;0.90;;;0.80;;
75054;SDS011;63636;44.746;10.488;2023-04-25T14:43:42;1.95;;;1.00;;
75054;SDS011;63636;44.746;10.488;2023-04-25T14:46:08;2.28;;;0.80;;
75054;SDS011;63636;44.746;10.488;2023-04-25T14:48:34;1.52;;;0.93;;